Time;durP1;ratioP1;P1;durP2;ratioP2;P2;SDS_P1;SDS_P2;PMS_P1;PMS_P2;Temp;Humidity;BMP_temperature;BMP_pressure;BME280_temperature;BME280_humidity;BME280_pressure;Samples;Min_cycle;Max_cycle;Signal;HPM_P1;HPM_P2
2022/07/04 00:02:12;;;;;;;3.40;2.80;;;21.60;62.50;;;;;;5238389;28;20209;-49
2022/07/04 00:04:42;;;;;;;3.03;2.93;;;21.50;63.30;;;;;;5240399;28;20190;-48
2022/07/04 00:07:13;;;;;;;3.23;2.90;;;21.50;64.40;;;;;;5235275;28;20261;-47
2022/07/04 00:09:43;;;;;;;3.50;2.77;;;21.40;65.40;;;;;;5220103;28;20205;-50
2022/07/04 00:12:14;;;;;;;9.50;3.00;;;21.50;66.80;;;;;;5217686;28;20584;-49
2022/07/04 00:14:45;;;;;;;2.50;2.40;;;21.40;68.60;;;;;;5223155;28;20208;-50
2022/07/04 00:17:15;;;;;;;2.50;2.40;;;21.40;69.30;;;;;;5233843;28;20281;-49
2022/07/04 00:19:46;;;;;;;2.03;1.93;;;21.30;70.80;;;;;;5217874;28;20189;-49
2022/07/04 00:22:16;;;;;;;3.20;1.97;;;21.30;72.80;;;;;;5234158;28;20300;-50
2022/07/04 00:24:47;;;;;;;2.07;1.97;;;21.10;75.30;;;;;;5218389;28;20179;-51
2022/07/04 00:27:18;;;;;;;2.27;1.90;;;21.10;78.70;;;;;;5232840;28;20305;-48
2022/07/04 00:29:49;;;;;;;4.47;2.10;;;20.90;82.40;;;;;;5237867;28;20187;-49
2022/07/04 00:32:20;;;;;;;2.93;1.93;;;20.80;86.60;;;;;;5239602;28;20678;-47
2022/07/04 00:34:50;;;;;;;4.30;2.10;;;20.80;90.50;;;;;;5237710;28;20475;-49
2022/07/04 00:37:21;;;;;;;3.20;2.00;;;20.70;92.60;;;;;;5221949;28;20201;-50
2022/07/04 00:39:51;;;;;;;1.37;1.37;;;20.60;94.60;;;;;;5230300;28;20171;-49
2022/07/04 00:42:22;;;;;;;2.53;1.90;;;20.50;96.20;;;;;;5239232;28;20209;-49
2022/07/04 00:44:53;;;;;;;3.17;2.10;;;20.50;97.70;;;;;;5245482;28;20182;-49
2022/07/04 00:47:23;;;;;;;1.97;1.90;;;20.40;99.30;;;;;;5227379;28;20198;-49
2022/07/04 00:49:54;;;;;;;1.67;1.67;;;20.40;99.90;;;;;;5234388;28;20209;-49
2022/07/04 00:52:25;;;;;;;1.83;1.83;;;20.30;99.90;;;;;;5242957;28;20186;-49
2022/07/04 00:54:55;;;;;;;2.17;1.70;;;20.30;99.90;;;;;;5223444;28;20198;-48
2022/07/04 00:57:27;;;;;;;2.50;1.80;;;20.30;99.90;;;;;;5243063;28;20240;-50
2022/07/04 00:59:57;;;;;;;1.80;1.80;;;20.20;99.90;;;;;;5227556;28;20185;-49
2022/07/04 01:02:28;;;;;;;2.40;2.30;;;20.20;99.90;;;;;;5215998;28;20429;-49
2022/07/04 01:04:58;;;;;;;2.10;1.60;;;20.20;99.90;;;;;;5232926;28;20302;-49
2022/07/04 01:07:29;;;;;;;8.90;2.10;;;20.10;99.90;;;;;;5230108;28;20305;-49
2022/07/04 01:10:02;;;;;;;2.60;2.40;;;20.10;99.90;;;;;;5225442;28;20751;-50
2022/07/04 01:12:32;;;;;;;4.17;1.97;;;20.00;99.90;;;;;;5230432;28;20269;-49
2022/07/04 01:15:04;;;;;;;2.30;1.80;;;20.00;99.90;;;;;;5239755;28;20564;-50
2022/07/04 01:17:35;;;;;;;1.83;1.83;;;20.00;99.90;;;;;;5234924;28;20213;-48
2022/07/04 01:20:11;;;;;;;2.47;2.00;;;19.90;99.90;;;;;;5233513;28;20436;-49
2022/07/04 01:22:41;;;;;;;1.93;1.83;;;19.80;99.90;;;;;;5226916;28;20472;-48
2022/07/04 01:25:14;;;;;;;3.00;1.93;;;19.80;99.90;;;;;;5235151;28;20465;-49
2022/07/04 01:27:45;;;;;;;2.17;2.17;;;19.70;99.90;;;;;;5239583;28;20209;-50
2022/07/04 01:30:15;;;;;;;1.53;1.53;;;19.60;99.90;;;;;;5214179;28;20440;-51
2022/07/04 01:32:46;;;;;;;2.20;2.00;;;19.50;99.90;;;;;;5214477;28;20187;-49
2022/07/04 01:35:17;;;;;;;2.57;1.80;;;19.50;99.90;;;;;;5235333;28;20191;-49
2022/07/04 01:37:48;;;;;;;2.17;2.07;;;19.40;99.90;;;;;;5229843;28;20174;-49
2022/07/04 01:40:19;;;;;;;2.53;2.43;;;19.40;99.90;;;;;;5214305;28;20493;-50
2022/07/04 01:42:49;;;;;;;2.00;1.73;;;19.40;99.90;;;;;;5240028;28;20458;-49
2022/07/04 01:45:20;;;;;;;8.20;2.27;;;19.40;99.90;;;;;;5210362;28;20860;-49
2022/07/04 01:47:51;;;;;;;1.80;1.70;;;19.30;99.90;;;;;;5219450;28;20582;-49
2022/07/04 01:50:21;;;;;;;2.20;1.80;;;19.20;99.90;;;;;;5231344;28;20194;-49
2022/07/04 01:52:52;;;;;;;1.80;1.70;;;19.20;99.90;;;;;;5233777;28;20193;-48
2022/07/04 01:55:23;;;;;;;2.40;2.33;;;19.20;99.90;;;;;;5236721;28;20182;-51
2022/07/04 01:57:53;;;;;;;2.63;2.43;;;19.20;99.90;;;;;;5219783;28;20175;-52
2022/07/04 02:03:14;;;;;;;6.50;2.77;;;19.20;99.90;;;;;;5238315;28;20645;-49
2022/07/04 02:05:45;;;;;;;2.53;2.33;;;19.10;99.90;;;;;;5225509;28;20448;-49
2022/07/04 02:08:15;;;;;;;3.03;2.63;;;19.10;99.90;;;;;;5219160;28;20187;-49
2022/07/04 02:10:46;;;;;;;1.70;1.70;;;19.00;99.90;;;;;;5224500;28;20286;-50
2022/07/04 02:13:17;;;;;;;2.63;2.53;;;19.00;99.90;;;;;;5208475;28;20223;-50
2022/07/04 02:15:47;;;;;;;2.83;2.73;;;19.00;99.90;;;;;;5206315;28;20221;-48
2022/07/04 02:18:18;;;;;;;3.30;3.00;;;18.80;99.90;;;;;;5227146;28;20195;-49
2022/07/04 02:20:48;;;;;;;3.67;3.57;;;18.70;99.90;;;;;;5221833;28;20266;-49
2022/07/04 02:23:19;;;;;;;13.43;3.30;;;18.70;99.90;;;;;;5231379;28;20680;-49
2022/07/04 02:25:49;;;;;;;6.03;3.30;;;18.60;99.90;;;;;;5234365;28;20260;-48
2022/07/04 02:28:20;;;;;;;4.20;3.63;;;18.50;99.90;;;;;;5206824;28;20202;-50
2022/07/04 02:30:51;;;;;;;4.30;4.00;;;18.50;99.90;;;;;;5223778;28;20273;-48
2022/07/04 02:33:21;;;;;;;7.83;4.57;;;18.40;99.90;;;;;;5224894;28;20207;-50
2022/07/04 02:35:52;;;;;;;4.80;4.37;;;18.30;99.90;;;;;;5210386;28;20207;-49
2022/07/04 02:38:23;;;;;;;5.30;5.00;;;18.30;99.90;;;;;;5239586;28;20187;-49
2022/07/04 02:40:53;;;;;;;5.63;5.27;;;18.20;99.90;;;;;;5237877;28;20575;-51
2022/07/04 02:43:24;;;;;;;7.40;5.63;;;18.10;99.90;;;;;;5229924;28;20190;-49
2022/07/04 02:45:54;;;;;;;6.13;5.50;;;18.00;99.90;;;;;;5232613;28;20213;-49
2022/07/04 02:48:25;;;;;;;5.87;5.57;;;18.00;99.90;;;;;;5237735;28;20587;-51
2022/07/04 02:50:55;;;;;;;5.60;5.20;;;18.00;99.90;;;;;;5230174;28;20191;-51
2022/07/04 02:53:26;;;;;;;6.40;5.80;;;17.90;99.90;;;;;;5234284;28;20290;-49
2022/07/04 02:55:57;;;;;;;7.03;5.97;;;17.90;99.90;;;;;;5230903;28;20612;-50
2022/07/04 02:58:28;;;;;;;6.10;5.60;;;17.80;99.90;;;;;;5231975;28;20239;-50
2022/07/04 03:00:58;;;;;;;7.27;5.83;;;17.90;99.90;;;;;;5227672;28;20183;-49
2022/07/04 03:03:29;;;;;;;6.60;6.00;;;17.90;99.90;;;;;;5211047;28;20798;-49
2022/07/04 03:06:00;;;;;;;7.40;6.50;;;17.90;99.90;;;;;;5230827;28;20218;-51
2022/07/04 03:08:31;;;;;;;10.17;6.70;;;17.90;99.90;;;;;;5223664;28;20198;-48
2022/07/04 03:11:02;;;;;;;6.10;5.50;;;17.80;99.90;;;;;;5243476;28;20218;-48
2022/07/04 03:13:32;;;;;;;6.50;5.70;;;17.80;99.90;;;;;;5225421;28;20265;-48
2022/07/04 03:16:03;;;;;;;8.40;6.63;;;17.70;99.90;;;;;;5216113;28;20207;-49
2022/07/04 03:18:34;;;;;;;7.63;6.60;;;17.80;99.90;;;;;;5216994;28;20182;-50
2022/07/04 03:21:04;;;;;;;7.23;6.60;;;17.70;99.90;;;;;;5241051;28;20191;-49
2022/07/04 03:23:35;;;;;;;7.60;6.87;;;17.70;99.90;;;;;;5234389;28;20190;-47
2022/07/04 03:26:06;;;;;;;8.30;6.90;;;17.70;99.90;;;;;;5231387;28;20232;-50
2022/07/04 03:28:36;;;;;;;8.60;7.03;;;17.70;99.90;;;;;;5221986;28;20190;-50
2022/07/04 03:31:07;;;;;;;7.00;6.40;;;17.70;99.90;;;;;;5223932;28;20191;-50
2022/07/04 03:33:37;;;;;;;6.60;6.10;;;17.80;99.90;;;;;;5199726;28;20721;-50
2022/07/04 03:36:08;;;;;;;9.20;5.83;;;17.80;99.90;;;;;;5224115;28;20214;-50
2022/07/04 03:38:39;;;;;;;11.00;7.73;;;17.90;99.90;;;;;;5229070;28;20236;-50
2022/07/04 03:41:09;;;;;;;9.47;6.77;;;18.00;99.90;;;;;;5224998;28;20181;-50
2022/07/04 03:43:40;;;;;;;6.17;5.53;;;18.10;99.90;;;;;;5247165;28;20218;-49
2022/07/04 03:46:11;;;;;;;5.90;5.50;;;18.10;99.90;;;;;;5225407;28;20237;-49
2022/07/04 03:48:43;;;;;;;6.67;6.17;;;18.20;99.90;;;;;;5223007;28;20241;-50
2022/07/04 03:51:13;;;;;;;5.47;5.07;;;18.20;99.90;;;;;;5229463;28;20183;-50
2022/07/04 03:53:44;;;;;;;5.60;5.17;;;18.30;99.90;;;;;;5213400;28;20461;-50
2022/07/04 03:56:15;;;;;;;6.47;5.90;;;18.30;99.90;;;;;;5228078;28;20264;-51
2022/07/04 03:58:48;;;;;;;10.73;6.33;;;18.30;99.90;;;;;;5234835;28;20573;-49
2022/07/04 04:01:19;;;;;;;6.50;5.90;;;18.30;99.90;;;;;;5217107;28;20175;-50
2022/07/04 04:06:39;;;;;;;7.87;5.63;;;18.30;99.90;;;;;;5225477;28;20441;-50
2022/07/04 04:09:16;;;;;;;7.27;6.57;;;18.40;99.90;;;;;;5224411;28;20422;-51
2022/07/04 04:11:46;;;;;;;11.70;7.90;;;18.50;99.90;;;;;;5215850;28;20812;-50
2022/07/04 04:14:17;;;;;;;8.00;6.43;;;18.50;99.90;;;;;;5213719;28;20468;-49
2022/07/04 04:16:47;;;;;;;11.07;7.20;;;18.60;99.90;;;;;;5223166;28;20260;-51
2022/07/04 04:19:18;;;;;;;6.50;6.00;;;18.60;99.90;;;;;;5221109;28;20615;-50
2022/07/04 04:21:48;;;;;;;7.03;6.13;;;18.80;99.90;;;;;;5224315;28;20186;-50
2022/07/04 04:24:19;;;;;;;6.10;5.40;;;18.90;99.90;;;;;;5237217;28;20221;-50
2022/07/04 04:26:50;;;;;;;5.90;5.40;;;19.00;99.90;;;;;;5211445;28;20229;-49
2022/07/04 04:29:20;;;;;;;8.17;5.50;;;19.10;99.90;;;;;;5230783;28;20274;-50
2022/07/04 04:31:51;;;;;;;7.20;6.50;;;19.10;99.90;;;;;;5216025;28;20210;-51
2022/07/04 04:34:22;;;;;;;6.70;5.30;;;19.20;99.90;;;;;;5225480;28;20218;-51
2022/07/04 04:36:52;;;;;;;5.47;5.07;;;19.40;99.90;;;;;;5241582;28;20742;-50
2022/07/04 04:39:23;;;;;;;7.40;5.80;;;19.70;99.90;;;;;;5211848;28;20519;-51
2022/07/04 04:41:53;;;;;;;6.33;5.60;;;19.90;99.90;;;;;;5217029;28;20534;-51
2022/07/04 04:44:24;;;;;;;8.33;4.93;;;20.20;99.90;;;;;;5208494;28;20397;-50
2022/07/04 04:46:55;;;;;;;6.80;6.13;;;20.40;99.90;;;;;;5242545;28;20264;-51
2022/07/04 04:49:25;;;;;;;9.40;5.20;;;21.00;99.90;;;;;;5225696;28;20186;-51
2022/07/04 04:51:56;;;;;;;10.57;6.10;;;21.60;99.90;;;;;;5215850;28;20190;-50
2022/07/04 04:54:26;;;;;;;7.33;5.60;;;21.70;99.90;;;;;;5239111;28;20308;-51
2022/07/04 04:56:57;;;;;;;6.37;5.43;;;21.70;99.90;;;;;;5211866;28;20301;-50
2022/07/04 04:59:29;;;;;;;5.17;4.67;;;22.30;99.90;;;;;;5211022;28;20509;-51
2022/07/04 05:02:00;;;;;;;5.80;5.17;;;23.00;99.90;;;;;;5220519;28;20663;-51
2022/07/04 05:04:30;;;;;;;4.70;4.40;;;23.40;99.90;;;;;;5207062;28;20466;-50
2022/07/04 05:07:01;;;;;;;5.17;4.60;;;23.30;99.90;;;;;;5235938;28;20268;-51
2022/07/04 05:09:32;;;;;;;3.83;3.67;;;23.10;99.90;;;;;;5244722;28;20599;-51
2022/07/04 05:12:02;;;;;;;10.33;4.83;;;23.00;99.90;;;;;;5208878;28;20247;-50
2022/07/04 05:14:33;;;;;;;8.07;5.17;;;22.70;99.90;;;;;;5239673;28;20278;-50
2022/07/04 05:17:04;;;;;;;5.30;4.63;;;22.70;99.90;;;;;;5238291;28;20214;-50
2022/07/04 05:19:34;;;;;;;4.80;3.63;;;22.70;99.90;;;;;;5223056;28;20211;-50
2022/07/04 05:22:05;;;;;;;4.20;3.90;;;22.90;99.90;;;;;;5223748;28;20183;-51
2022/07/04 05:24:39;;;;;;;4.20;3.80;;;23.10;99.90;;;;;;5224333;28;20191;-51
2022/07/04 05:27:09;;;;;;;3.67;3.40;;;22.80;99.90;;;;;;5236550;28;20630;-51
2022/07/04 05:29:40;;;;;;;5.57;4.10;;;22.20;99.90;;;;;;5237731;28;20447;-50
2022/07/04 05:32:11;;;;;;;5.00;3.70;;;22.00;99.90;;;;;;5244345;28;20658;-51
2022/07/04 05:34:41;;;;;;;4.47;4.10;;;21.80;99.90;;;;;;5224056;28;20218;-51
2022/07/04 05:37:12;;;;;;;5.03;3.20;;;21.40;99.90;;;;;;5236753;28;20203;-49
2022/07/04 05:39:42;;;;;;;4.30;4.00;;;21.20;99.90;;;;;;5237635;28;20179;-50
2022/07/04 05:42:13;;;;;;;2.63;2.53;;;21.10;99.90;;;;;;5231292;28;20178;-50
2022/07/04 05:44:44;;;;;;;4.07;3.60;;;21.30;99.90;;;;;;5242656;28;20186;-51
2022/07/04 05:47:14;;;;;;;3.70;2.70;;;22.20;99.90;;;;;;5250455;28;20690;-51
2022/07/04 05:49:45;;;;;;;4.10;2.40;;;24.00;99.90;;;;;;5246597;28;20221;-50
2022/07/04 05:52:16;;;;;;;3.73;3.10;;;25.20;99.90;;;;;;5229294;28;20179;-51
2022/07/04 05:54:48;;;;;;;2.67;2.57;;;27.00;89.80;;;;;;5248496;28;20209;-51
2022/07/04 05:57:18;;;;;;;2.37;2.27;;;27.10;76.30;;;;;;5231708;28;20648;-51
2022/07/04 05:59:49;;;;;;;2.30;2.10;;;27.50;72.90;;;;;;5226641;28;20464;-51
2022/07/04 06:02:20;;;;;;;2.70;2.47;;;27.10;71.40;;;;;;5237382;28;20182;-51
2022/07/04 06:04:50;;;;;;;3.40;2.07;;;26.60;72.30;;;;;;5227121;28;20610;-49
2022/07/04 06:07:21;;;;;;;3.27;2.30;;;26.30;71.20;;;;;;5242944;28;20198;-51
2022/07/04 06:09:52;;;;;;;1.80;1.80;;;27.20;68.90;;;;;;5242364;28;20258;-51
2022/07/04 06:12:22;;;;;;;2.43;2.30;;;28.60;64.20;;;;;;5245313;28;20567;-52
2022/07/04 06:14:53;;;;;;;1.67;1.57;;;29.00;57.60;;;;;;5244194;28;20213;-51
2022/07/04 06:17:24;;;;;;;1.50;1.47;;;29.50;55.70;;;;;;5244824;28;20290;-51
2022/07/04 06:19:54;;;;;;;2.30;1.93;;;30.50;51.50;;;;;;5228994;28;20182;-51
2022/07/04 06:22:25;;;;;;;2.40;1.70;;;31.10;49.70;;;;;;5244416;28;20437;-52
2022/07/04 06:24:56;;;;;;;1.83;1.17;;;31.00;44.70;;;;;;5238681;28;20268;-51
2022/07/04 06:27:28;;;;;;;6.43;1.17;;;31.00;42.40;;;;;;5236139;28;20221;-51
2022/07/04 06:30:00;;;;;;;0.60;0.60;;;31.70;41.60;;;;;;5227723;28;20665;-51
2022/07/04 06:32:40;;;;;;;10.40;1.03;;;32.50;40.00;;;;;;5230777;28;20454;-52
2022/07/04 06:38:00;;;;;;;0.60;0.60;;;33.90;36.10;;;;;;5241994;28;20236;-52
2022/07/04 06:40:30;;;;;;;1.03;0.70;;;32.50;35.40;;;;;;5245806;28;20786;-51
2022/07/04 06:43:01;;;;;;;1.03;0.70;;;32.20;37.10;;;;;;5211854;28;20240;-53
2022/07/04 06:45:33;;;;;;;0.77;0.57;;;32.90;35.40;;;;;;5239375;28;20205;-51
2022/07/04 06:48:05;;;;;;;0.70;0.63;;;32.70;35.10;;;;;;5218083;28;20447;-52
2022/07/04 06:50:35;;;;;;;1.27;1.17;;;31.50;35.50;;;;;;5230710;28;20750;-52
2022/07/04 06:53:08;;;;;;;1.57;1.30;;;31.10;37.00;;;;;;5243749;28;20447;-51
2022/07/04 06:55:40;;;;;;;1.60;0.80;;;31.60;37.20;;;;;;5240401;28;20285;-52
2022/07/04 06:58:12;;;;;;;1.60;0.73;;;31.70;37.50;;;;;;5229507;28;20795;-52
2022/07/04 07:00:43;;;;;;;1.70;0.77;;;32.80;35.20;;;;;;5242287;28;20418;-51
2022/07/04 07:03:14;;;;;;;0.77;0.60;;;32.80;34.10;;;;;;5233952;28;20190;-51
2022/07/04 07:05:45;;;;;;;4.40;1.20;;;33.00;34.20;;;;;;5202562;28;20512;-52
2022/07/04 07:08:16;;;;;;;0.63;0.60;;;33.40;33.70;;;;;;5227982;28;20326;-51
2022/07/04 07:10:46;;;;;;;0.60;0.60;;;33.20;33.10;;;;;;5241301;28;20186;-52
2022/07/04 07:13:17;;;;;;;0.70;0.70;;;33.10;33.90;;;;;;5242574;28;20229;-51
2022/07/04 07:15:47;;;;;;;0.93;0.90;;;32.30;34.60;;;;;;5241105;28;20289;-51
2022/07/04 07:18:18;;;;;;;0.70;0.70;;;32.60;34.80;;;;;;5232212;28;20647;-51
2022/07/04 07:20:49;;;;;;;1.90;0.60;;;31.70;35.20;;;;;;5239773;28;20203;-52
2022/07/04 07:23:19;;;;;;;1.13;0.70;;;31.20;36.00;;;;;;5228625;28;20300;-51
2022/07/04 07:25:50;;;;;;;0.60;0.60;;;31.20;37.10;;;;;;5247603;28;20221;-53
2022/07/04 07:28:20;;;;;;;1.17;0.50;;;31.70;35.00;;;;;;5246004;28;20205;-50
2022/07/04 07:30:51;;;;;;;0.90;0.77;;;31.00;35.50;;;;;;5227570;28;20198;-51
2022/07/04 07:33:21;;;;;;;1.13;0.70;;;30.80;35.80;;;;;;5241371;28;20206;-52
2022/07/04 07:35:52;;;;;;;0.73;0.73;;;32.50;36.10;;;;;;5247138;28;20295;-52
2022/07/04 07:38:23;;;;;;;0.70;0.70;;;33.10;33.40;;;;;;5238890;28;20179;-51
2022/07/04 07:40:53;;;;;;;0.70;0.60;;;32.80;33.80;;;;;;5240766;28;20193;-52
2022/07/04 07:43:24;;;;;;;2.10;0.90;;;30.90;35.80;;;;;;5243063;28;20191;-51
2022/07/04 07:45:55;;;;;;;2.90;1.70;;;29.20;38.80;;;;;;5230990;28;20212;-51
2022/07/04 07:48:27;;;;;;;0.70;0.70;;;27.90;41.70;;;;;;5245864;28;20186;-52
2022/07/04 07:50:58;;;;;;;1.73;1.33;;;26.60;43.40;;;;;;5238702;28;20452;-51
2022/07/04 07:53:28;;;;;;;1.30;1.00;;;25.50;46.40;;;;;;5244949;28;20884;-51
2022/07/04 07:55:59;;;;;;;6.90;0.97;;;24.90;48.30;;;;;;5225054;28;20195;-51
2022/07/04 07:58:29;;;;;;;0.90;0.90;;;24.80;48.90;;;;;;5210763;28;20194;-51
2022/07/04 08:01:01;;;;;;;0.63;0.63;;;24.50;49.50;;;;;;5231528;28;20208;-51
2022/07/04 08:06:21;;;;;;;4.93;1.13;;;24.10;50.80;;;;;;5238007;28;20467;-51
2022/07/04 08:08:52;;;;;;;2.33;1.17;;;24.20;51.10;;;;;;5227920;28;20441;-51
2022/07/04 08:11:22;;;;;;;1.37;0.73;;;24.30;50.70;;;;;;5224120;28;20179;-51
2022/07/04 08:13:53;;;;;;;0.63;0.50;;;24.70;50.30;;;;;;5224225;28;20663;-51
2022/07/04 08:16:23;;;;;;;3.40;1.13;;;25.60;49.10;;;;;;5236708;28;20237;-51
2022/07/04 08:18:54;;;;;;;0.90;0.80;;;26.20;46.50;;;;;;5227597;28;20174;-51
2022/07/04 08:21:25;;;;;;;1.00;0.77;;;27.50;45.50;;;;;;5241872;28;20179;-52
2022/07/04 08:23:55;;;;;;;1.13;0.70;;;29.40;42.10;;;;;;5234888;28;20665;-54
2022/07/04 08:26:26;;;;;;;3.30;0.93;;;30.30;39.30;;;;;;5244624;28;20234;-50
2022/07/04 08:28:57;;;;;;;3.37;1.63;;;29.90;39.60;;;;;;5224583;28;20210;-51
2022/07/04 08:31:28;;;;;;;1.57;1.20;;;30.20;39.70;;;;;;5224260;28;20658;-51
2022/07/04 08:33:58;;;;;;;0.50;0.50;;;31.40;38.40;;;;;;5238659;28;20201;-52
2022/07/04 08:36:29;;;;;;;1.13;0.70;;;32.30;35.40;;;;;;5228065;28;20696;-51
2022/07/04 08:39:00;;;;;;;0.70;0.70;;;32.30;34.70;;;;;;5225714;28;20185;-52
2022/07/04 08:41:38;;;;;;;4.20;0.80;;;33.10;34.20;;;;;;5223098;28;20268;-52
2022/07/04 08:44:11;;;;;;;1.43;0.50;;;33.40;33.90;;;;;;5219421;28;20185;-51
2022/07/04 08:46:42;;;;;;;5.50;0.70;;;32.90;33.10;;;;;;5232929;28;20890;-52
2022/07/04 08:49:21;;;;;;;1.30;0.77;;;31.90;34.90;;;;;;5224542;28;20424;-52
2022/07/04 08:52:00;;;;;;;0.93;0.60;;;30.70;37.10;;;;;;5246603;28;20416;-52
2022/07/04 09:00:11;;;;;;;2.20;0.90;;;28.10;42.30;;;;;;5234788;28;20742;-51
2022/07/04 09:02:41;;;;;;;0.77;0.77;;;27.00;43.60;;;;;;5210067;28;20444;-50
2022/07/04 09:05:12;;;;;;;2.00;0.90;;;26.10;44.80;;;;;;5227239;28;20187;-51
2022/07/04 09:07:44;;;;;;;0.97;0.77;;;25.80;45.80;;;;;;5247834;28;20183;-51
2022/07/04 09:10:16;;;;;;;7.20;0.73;;;25.70;45.80;;;;;;5234822;28;20182;-51
2022/07/04 09:12:46;;;;;;;1.40;0.70;;;25.60;46.10;;;;;;5222390;28;20495;-51
2022/07/04 09:15:18;;;;;;;1.10;1.07;;;25.80;46.00;;;;;;5229367;28;20469;-51
2022/07/04 09:17:48;;;;;;;1.00;0.90;;;25.60;47.60;;;;;;5230336;28;20546;-51
2022/07/04 09:20:21;;;;;;;1.30;0.90;;;25.10;47.90;;;;;;5249249;28;20428;-51
2022/07/04 09:22:53;;;;;;;2.80;1.27;;;25.10;49.10;;;;;;5247231;28;20303;-51
2022/07/04 09:27:56;;;;;;;1.57;1.30;;;25.00;49.20;;;;;;5257138;22;20488;-49
2022/07/04 09:30:28;;;;;;;3.63;0.90;;;24.50;50.00;;;;;;5230656;28;20182;-48
2022/07/04 09:33:02;;;;;;;0.70;0.70;;;24.30;48.80;;;;;;5236756;28;20547;-50
2022/07/04 09:35:34;;;;;;;1.47;1.13;;;24.30;49.10;;;;;;5240857;28;20424;-49
2022/07/04 09:38:05;;;;;;;0.83;0.83;;;24.60;48.80;;;;;;5243283;28;20762;-49
2022/07/04 09:41:24;;;;;;;1.37;1.00;;;24.90;48.60;;;;;;5228843;28;20429;-49
2022/07/04 09:43:28;;;;;;;9.10;0.77;;;25.40;47.20;;;;;;5242775;28;20265;-47
2022/07/04 09:46:03;;;;;;;3.80;1.40;;;25.40;46.70;;;;;;5215473;28;20535;-49
2022/07/04 09:48:50;;;;;;;2.30;1.17;;;25.30;46.40;;;;;;5244180;28;20177;-48
2022/07/04 09:51:37;;;;;;;2.03;0.80;;;25.20;45.80;;;;;;5240970;28;20436;-47
2022/07/04 09:54:20;;;;;;;4.43;1.10;;;25.50;46.30;;;;;;5222473;28;20467;-48
2022/07/04 09:56:54;;;;;;;2.40;0.87;;;25.40;46.30;;;;;;5234128;28;20460;-49
2022/07/04 09:59:27;;;;;;;2.30;1.13;;;25.70;46.10;;;;;;5248504;28;20442;-48
2022/07/04 10:02:09;;;;;;;1.27;1.20;;;25.60;45.80;;;;;;5235172;28;20442;-48
2022/07/04 10:04:54;;;;;;;0.63;0.60;;;25.30;44.80;;;;;;5240086;28;20424;-48
2022/07/04 10:07:35;;;;;;;0.90;0.90;;;25.10;45.00;;;;;;5217362;28;20456;-48
2022/07/04 10:10:26;;;;;;;1.17;0.90;;;25.30;45.80;;;;;;5244305;28;20433;-47
2022/07/04 10:13:05;;;;;;;6.83;0.90;;;25.60;45.10;;;;;;5223984;28;20432;-48
2022/07/04 10:15:40;;;;;;;5.10;1.43;;;25.70;44.70;;;;;;5238572;28;20493;-50
2022/07/04 10:18:11;;;;;;;7.70;0.80;;;25.80;44.60;;;;;;5246483;28;20447;-48
2022/07/04 10:20:42;;;;;;;1.83;1.17;;;25.80;44.50;;;;;;5222096;28;20437;-49
2022/07/04 10:23:13;;;;;;;0.90;0.90;;;25.90;44.10;;;;;;5214114;28;20708;-49
2022/07/04 10:25:47;;;;;;;2.30;1.10;;;26.10;43.70;;;;;;5245458;28;20241;-48
2022/07/04 10:28:18;;;;;;;0.97;0.80;;;26.00;43.10;;;;;;5224204;28;20638;-48
2022/07/04 10:30:52;;;;;;;3.27;1.37;;;25.70;43.20;;;;;;5229806;28;20447;-50
2022/07/04 10:33:27;;;;;;;9.60;2.97;;;26.00;43.40;;;;;;5230765;28;20452;-50
2022/07/04 10:36:03;;;;;;;1.40;1.30;;;26.20;43.60;;;;;;5238795;28;20976;-48
2022/07/04 10:38:50;;;;;;;13.30;5.87;;;26.30;43.40;;;;;;5211363;28;20437;-47
2022/07/04 10:41:23;;;;;;;4.63;2.30;;;26.00;43.20;;;;;;5244166;28;20523;-50
2022/07/04 10:44:09;;;;;;;7.53;1.60;;;25.40;44.10;;;;;;5246849;28;20793;-49
2022/07/04 10:46:44;;;;;;;1.13;1.03;;;25.00;44.40;;;;;;5218495;28;20483;-48
2022/07/04 10:49:14;;;;;;;1.17;1.07;;;24.60;45.50;;;;;;5242633;28;20427;-50
2022/07/04 10:51:50;;;;;;;1.20;0.90;;;24.50;45.70;;;;;;5247125;28;20490;-49
2022/07/04 10:54:32;;;;;;;0.93;0.93;;;24.60;46.00;;;;;;5236971;28;20209;-47
2022/07/04 10:57:11;;;;;;;1.10;1.10;;;24.90;45.10;;;;;;5209971;28;20888;-48
2022/07/04 11:00:01;;;;;;;0.83;0.83;;;25.20;45.00;;;;;;5229010;28;20432;-48
2022/07/04 11:02:37;;;;;;;0.60;0.60;;;25.50;44.70;;;;;;5229092;28;20437;-48
2022/07/04 11:05:08;;;;;;;1.03;1.03;;;25.60;44.90;;;;;;5226660;28;20990;-46
2022/07/04 11:07:41;;;;;;;1.07;0.93;;;25.90;44.80;;;;;;5230885;28;20976;-49
2022/07/04 11:10:21;;;;;;;0.80;0.70;;;25.80;44.50;;;;;;5241520;28;20765;-48
2022/07/04 11:12:58;;;;;;;6.90;1.47;;;25.50;44.60;;;;;;5226421;28;20756;-48
2022/07/04 11:15:32;;;;;;;0.70;0.70;;;25.40;45.80;;;;;;5231220;28;20469;-48
2022/07/04 11:18:11;;;;;;;1.03;0.90;;;25.20;46.20;;;;;;5224069;28;20437;-49
2022/07/04 11:20:44;;;;;;;1.40;1.00;;;25.10;46.10;;;;;;5225221;28;20429;-47
2022/07/04 11:23:23;;;;;;;0.80;0.80;;;25.10;45.90;;;;;;5242939;28;20433;-49
2022/07/04 11:25:56;;;;;;;5.70;0.93;;;24.80;46.40;;;;;;5249188;28;20456;-49
2022/07/04 11:28:35;;;;;;;2.77;1.20;;;24.50;47.00;;;;;;5227039;28;20535;-47
2022/07/04 11:31:06;;;;;;;2.60;1.20;;;24.40;46.80;;;;;;5242341;28;20464;-45
2022/07/04 11:33:37;;;;;;;1.03;0.77;;;24.40;47.40;;;;;;5229581;28;20507;-45
2022/07/04 11:36:16;;;;;;;1.50;1.20;;;24.80;47.20;;;;;;5238740;28;20242;-47
2022/07/04 11:38:58;;;;;;;3.47;1.20;;;25.30;46.30;;;;;;5221355;28;20464;-45
2022/07/04 11:47:22;;;;;;;1.47;1.37;;;24.90;45.70;;;;;;5234753;28;20905;-47
2022/07/04 11:49:57;;;;;;;0.90;0.90;;;24.70;45.80;;;;;;5247357;28;20408;-46
2022/07/04 11:52:41;;;;;;;1.27;0.97;;;24.70;46.20;;;;;;5225777;28;20483;-46
2022/07/04 11:55:17;;;;;;;0.90;0.90;;;24.70;46.30;;;;;;5227203;28;20460;-45
2022/07/04 11:57:51;;;;;;;0.80;0.80;;;24.90;46.00;;;;;;5241786;28;20472;-47
2022/07/04 12:00:27;;;;;;;1.60;1.07;;;25.10;45.30;;;;;;5236179;28;20432;-46
2022/07/04 12:03:01;;;;;;;2.00;0.83;;;25.10;45.60;;;;;;5228711;28;20939;-46
2022/07/04 12:05:32;;;;;;;1.17;1.07;;;25.10;45.00;;;;;;5224454;28;20534;-46
2022/07/04 12:08:05;;;;;;;2.50;0.83;;;24.70;44.70;;;;;;5228011;28;20478;-46
2022/07/04 12:10:36;;;;;;;1.33;1.33;;;24.30;45.60;;;;;;5240690;28;20457;-45
2022/07/04 12:13:14;;;;;;;1.83;0.97;;;24.00;45.90;;;;;;5233004;28;20521;-45
2022/07/04 12:15:47;;;;;;;3.53;1.13;;;24.00;46.70;;;;;;5234178;28;20449;-46
2022/07/04 12:18:31;;;;;;;6.10;1.93;;;24.00;46.70;;;;;;5233266;28;20432;-45
2022/07/04 12:21:18;;;;;;;1.00;1.00;;;24.40;46.50;;;;;;5237934;28;20475;-45
2022/07/04 12:23:54;;;;;;;0.63;0.60;;;24.50;45.60;;;;;;5209414;28;20429;-46
2022/07/04 12:26:24;;;;;;;2.73;1.20;;;24.50;45.10;;;;;;5228796;28;20821;-45
2022/07/04 12:28:56;;;;;;;1.37;1.03;;;24.80;45.40;;;;;;5206239;28;20435;-50
2022/07/04 12:31:40;;;;;;;1.07;1.00;;;25.10;44.90;;;;;;5226020;28;20208;-47
2022/07/04 12:34:15;;;;;;;2.70;1.03;;;25.30;44.50;;;;;;5224902;28;20461;-47
2022/07/04 12:36:53;;;;;;;0.53;0.53;;;25.00;44.30;;;;;;5208568;28;20460;-46
2022/07/04 12:39:37;;;;;;;1.00;1.00;;;25.00;44.30;;;;;;5213501;28;20528;-47
2022/07/04 12:42:19;;;;;;;14.73;1.73;;;24.90;43.70;;;;;;5237139;28;20444;-47
2022/07/04 12:44:51;;;;;;;7.70;1.50;;;24.90;44.20;;;;;;5227004;28;20444;-47
2022/07/04 12:47:22;;;;;;;2.30;1.23;;;25.00;44.50;;;;;;5244316;28;20457;-48
2022/07/04 12:49:53;;;;;;;2.57;0.73;;;25.30;44.10;;;;;;5246802;28;20412;-46
2022/07/04 12:52:27;;;;;;;1.07;0.73;;;25.40;43.70;;;;;;5210039;28;20478;-46
2022/07/04 12:55:07;;;;;;;1.60;1.50;;;25.60;43.10;;;;;;5228839;28;20287;-45
2022/07/04 12:57:37;;;;;;;1.27;0.70;;;25.60;43.10;;;;;;5238019;28;20551;-49
2022/07/04 13:00:09;;;;;;;0.90;0.90;;;25.60;42.40;;;;;;5239943;28;20615;-49
2022/07/04 13:02:39;;;;;;;6.43;1.13;;;25.60;42.00;;;;;;5239259;28;20207;-47
2022/07/04 13:05:11;;;;;;;0.80;0.77;;;25.70;41.10;;;;;;5240464;28;20467;-49
2022/07/04 13:07:41;;;;;;;0.77;0.77;;;25.40;40.50;;;;;;5242121;28;20217;-48
2022/07/04 13:10:12;;;;;;;0.80;0.80;;;25.10;40.10;;;;;;5242163;28;20444;-51
2022/07/04 13:12:43;;;;;;;0.90;0.90;;;24.80;40.70;;;;;;5204553;28;20186;-48
2022/07/04 13:15:13;;;;;;;1.40;1.00;;;24.80;41.20;;;;;;5245266;28;20272;-49
2022/07/04 13:17:44;;;;;;;2.67;1.30;;;25.00;40.90;;;;;;5226291;28;20198;-50
2022/07/04 13:20:14;;;;;;;0.80;0.70;;;25.00;41.50;;;;;;5245464;28;20175;-49
2022/07/04 13:22:45;;;;;;;0.90;0.90;;;25.30;42.10;;;;;;5244661;28;20555;-50
2022/07/04 13:25:16;;;;;;;1.20;1.20;;;25.40;41.20;;;;;;5232164;28;20201;-49
2022/07/04 13:27:46;;;;;;;0.80;0.80;;;25.40;40.80;;;;;;5248438;28;20739;-48
2022/07/04 13:30:17;;;;;;;2.20;0.70;;;25.50;40.80;;;;;;5246194;28;20205;-48
2022/07/04 13:32:48;;;;;;;1.10;1.10;;;25.50;40.70;;;;;;5240912;28;20198;-46
2022/07/04 13:35:18;;;;;;;1.80;1.30;;;25.40;40.70;;;;;;5230982;28;20622;-48
2022/07/04 13:37:50;;;;;;;1.93;0.90;;;25.10;41.00;;;;;;5241743;28;20210;-48